Flight Track Log - Related Links

Times and Time Zones

All times are in EST time to prevent confusion due to time zone crossing. See the VH-BOF flight status page for this flight to view local times or setup timezone preferences in your user account.

Time Position Orientation Groundspeed Altitude Reporting Facility
EST Latitude Longitude Course Direction KTS MPH feet Rate Location/Type
Tue 09:46:20 AM -32.5096 117.1748 296° West 6,500  Level Aus ATC (Calculated)
Tue 09:47:08 AM -32.5333 117.0833 304° West 6,500  Level Aus ATC (Calculated)
Tue 09:48:30 AM -32.3220 116.7159 302° West 110 127 6,500  Level Aus ATC (RADAR)
Tue 09:49:30 AM -32.3042 116.6826 302° West 114 131 6,500 48 Level Aus ATC (RADAR)
Tue 09:50:35 AM -32.2862 116.6482 302° West 108 124 6,600 -46 Climbing Aus ATC (RADAR)
Tue 09:51:40 AM -32.2701 116.6122 298° West 118 136 6,400  Descending Aus ATC (RADAR)
Tue 09:52:40 AM -32.2550 116.5794 299° West 109 125 6,600 -194 Climbing Aus ATC (RADAR)
Tue 09:53:44 AM -32.2394 116.5421 296° West 116 133 6,000 -512 Descending Aus ATC (RADAR)
Tue 09:54:49 AM -32.2270 116.5036 291° West 110 127 5,500 -462 Descending Aus ATC (RADAR)
Tue 09:55:54 AM -32.2188 116.4665 285° West 101 116 5,000 -480 Descending Aus ATC (RADAR)
Tue 09:56:54 AM -32.2136 116.4327 280° West 102 117 4,500 -222 Descending Aus ATC (RADAR)
Tue 09:58:09 AM -32.2078 116.3889 279° West 108 124 4,500 43 Level Aus ATC (RADAR)
Tue 09:59:14 AM -32.2015 116.3516 281° West 102 117 4,600 46 Climbing Aus ATC (RADAR)
Tue 10:00:19 AM -32.1950 116.3163 282° West 100 115 4,600 -46 Level Aus ATC (RADAR)
Tue 10:01:24 AM -32.1861 116.2781 285° West 109 125 4,500 -48 Descending Aus ATC (RADAR)
Tue 10:02:24 AM -32.1779 116.2429 286° West 106 122 4,500 -92 Level Aus ATC (RADAR)
Tue 10:03:34 AM -32.1679 116.2032 287° West 105 121 4,300 -279 Descending Aus ATC (RADAR)
Tue 10:04:33 AM -32.1600 116.1701 286° West 103 119 3,900 -435 Descending Aus ATC (RADAR)
Tue 10:05:38 AM -32.1532 116.1312 282° West 109 125 3,400 -462 Descending Aus ATC (RADAR)
Tue 10:06:43 AM -32.1460 116.0905 282° West 115 132 2,900 -231 Descending Aus ATC (RADAR)
Tue 10:07:48 AM -32.1404 116.0531 280° West 107 123 2,900 46 Level Aus ATC (RADAR)
Tue 10:08:53 AM -32.1581 116.0232 235° Southwest 99 114 3,000 -46 Climbing Aus ATC (RADAR)
Tue 10:09:58 AM -32.1768 115.9943 233° Southwest 102 117 2,800 -185 Descending Aus ATC (RADAR)
Tue 10:12:08 AM -32.1943 115.9226 254° West 111 128 2,400 -215 Descending Aus ATC (RADAR)
Tue 10:13:13 AM -32.1807 115.8871 294° West 123 142 2,100 -257 Descending Aus ATC (RADAR)
Tue 10:13:18 AM -32.1777 115.8865 350° North 125 144 2,100 -450 Level Aus ATC (RADAR)
Tue 10:13:53 AM -32.1575 115.8864 360° North 124 143 1,800 -514 Descending Aus ATC (RADAR)
Tue 10:15:00 AM -32.1199 115.8831 356° North  Level Estimated

Login

Don't have an account? Register now (free) for customized features, flight alerts, and more!